Time;durP1;ratioP1;P1;durP2;ratioP2;P2;SDS_P1;SDS_P2;PMS_P1;PMS_P2;Temp;Humidity;BMP_temperature;BMP_pressure;BME280_temperature;BME280_humidity;BME280_pressure;Samples;Min_cycle;Max_cycle;Signal;HPM_P1;HPM_P2
2023/01/19 00:01:38;;;;;;;14.02;5.43;;;0.30;96.30;;;;;;5012949;28;20125;-76
2023/01/19 00:04:05;;;;;;;10.43;5.50;;;0.30;96.40;;;;;;5010320;28;20838;-76
2023/01/19 00:06:31;;;;;;;11.38;5.93;;;0.30;96.50;;;;;;5010951;28;20044;-76
2023/01/19 00:08:57;;;;;;;14.23;6.32;;;0.30;96.40;;;;;;5013780;28;20679;-76
2023/01/19 00:11:23;;;;;;;15.07;5.90;;;0.30;96.40;;;;;;5009548;28;20145;-76
2023/01/19 00:13:49;;;;;;;12.07;5.82;;;0.30;96.30;;;;;;5010761;28;20469;-76
2023/01/19 00:16:21;;;;;;;9.85;5.13;;;0.20;96.20;;;;;;5010899;28;20050;-76
2023/01/19 00:18:49;;;;;;;12.23;5.63;;;0.20;96.20;;;;;;5031645;28;20794;-76
2023/01/19 00:21:15;;;;;;;11.85;5.75;;;0.20;96.20;;;;;;5011656;28;20579;-76
2023/01/19 00:23:41;;;;;;;16.75;6.93;;;0.20;96.30;;;;;;5011992;28;20038;-76
2023/01/19 00:26:07;;;;;;;13.93;7.05;;;0.20;96.30;;;;;;5014131;28;20560;-76
2023/01/19 00:28:33;;;;;;;12.32;5.72;;;0.20;96.40;;;;;;5017564;28;20507;-72
2023/01/19 00:30:59;;;;;;;10.52;5.70;;;0.20;96.60;;;;;;5029158;28;20037;-72
2023/01/19 00:33:25;;;;;;;14.55;6.10;;;0.10;96.60;;;;;;5018316;28;20034;-72
2023/01/19 00:35:52;;;;;;;17.08;7.20;;;0.10;96.60;;;;;;5010450;28;20902;-75
2023/01/19 00:38:18;;;;;;;13.55;6.43;;;0.20;96.70;;;;;;5015383;28;20494;-76
2023/01/19 00:40:44;;;;;;;10.60;5.95;;;0.10;96.60;;;;;;5010823;28;20179;-76
2023/01/19 00:43:10;;;;;;;11.10;5.80;;;0.10;96.70;;;;;;5012469;28;20045;-75
2023/01/19 00:45:35;;;;;;;14.27;6.45;;;0.10;96.60;;;;;;5008643;28;20072;-76
2023/01/19 00:48:01;;;;;;;14.15;7.05;;;0.20;95.60;;;;;;5011028;28;20497;-76
2023/01/19 00:50:29;;;;;;;11.90;6.47;;;0.20;93.90;;;;;;5011705;28;20843;-76
2023/01/19 00:52:56;;;;;;;14.23;6.25;;;0.10;93.50;;;;;;5009992;28;20481;-72
2023/01/19 00:55:22;;;;;;;17.48;7.55;;;0.00;93.80;;;;;;5009778;28;20064;-72
2023/01/19 00:57:48;;;;;;;11.82;6.10;;;-0.10;94.20;;;;;;5010924;28;20033;-72
2023/01/19 01:00:18;;;;;;;14.60;6.43;;;-0.20;94.70;;;;;;5011251;28;20037;-72
2023/01/19 01:02:44;;;;;;;13.45;6.18;;;-0.20;95.20;;;;;;5010282;28;20044;-75
2023/01/19 01:05:13;;;;;;;14.65;6.53;;;-0.20;95.60;;;;;;5013931;28;20025;-75
2023/01/19 01:07:40;;;;;;;19.02;6.78;;;-0.20;96.00;;;;;;5012169;28;20037;-72
2023/01/19 01:10:15;;;;;;;14.93;6.63;;;-0.20;96.10;;;;;;5010547;28;20064;-72
2023/01/19 01:12:42;;;;;;;10.45;6.10;;;-0.20;96.60;;;;;;5010640;28;20641;-72
2023/01/19 01:15:14;;;;;;;14.65;7.07;;;-0.20;96.60;;;;;;5016412;28;20030;-72
2023/01/19 01:17:46;;;;;;;11.45;5.78;;;-0.10;96.60;;;;;;5007069;28;20442;-72
2023/01/19 01:20:15;;;;;;;16.02;6.75;;;-0.10;96.60;;;;;;5009525;28;20041;-70
2023/01/19 01:22:44;;;;;;;14.60;7.40;;;-0.10;97.20;;;;;;5009764;28;20139;-74
2023/01/19 01:25:11;;;;;;;15.35;7.03;;;-0.10;97.20;;;;;;5011816;28;20445;-73
2023/01/19 01:27:37;;;;;;;12.40;6.70;;;-0.10;97.50;;;;;;5011597;28;20033;-73
2023/01/19 01:30:04;;;;;;;12.70;6.22;;;-0.20;97.30;;;;;;5013972;28;20048;-74
2023/01/19 01:32:29;;;;;;;14.05;6.88;;;-0.20;97.10;;;;;;5006516;28;20033;-74
2023/01/19 01:34:55;;;;;;;13.73;6.93;;;-0.10;97.20;;;;;;5011216;28;20033;-74
2023/01/19 01:37:21;;;;;;;12.80;6.55;;;0.00;96.80;;;;;;5009503;28;20032;-74
2023/01/19 01:39:47;;;;;;;10.13;5.97;;;0.00;96.70;;;;;;5008276;28;20835;-74
2023/01/19 01:42:18;;;;;;;11.43;5.65;;;0.10;96.60;;;;;;5010708;28;20037;-74
2023/01/19 01:44:49;;;;;;;12.18;5.50;;;0.10;96.40;;;;;;5014709;28;20080;-74
2023/01/19 01:47:40;;;;;;;15.13;7.00;;;0.10;96.30;;;;;;5006001;28;20848;-74
2023/01/19 01:50:18;;;;;;;12.68;6.47;;;0.10;96.40;;;;;;5011230;28;20037;-74
2023/01/19 01:52:51;;;;;;;16.60;6.28;;;0.10;96.60;;;;;;5013017;28;20051;-74
2023/01/19 01:55:19;;;;;;;15.98;6.40;;;0.00;96.60;;;;;;5006164;28;20033;-74
2023/01/19 01:57:49;;;;;;;14.32;6.38;;;0.10;96.70;;;;;;5007935;28;20033;-74
2023/01/19 02:00:15;;;;;;;16.73;7.15;;;0.10;96.60;;;;;;5010656;28;20083;-74
2023/01/19 02:02:50;;;;;;;14.93;7.25;;;0.00;96.60;;;;;;5009247;28;20029;-74
2023/01/19 02:05:30;;;;;;;9.73;6.27;;;0.00;96.70;;;;;;5007743;28;20516;-74
2023/01/19 02:13:48;;;;;;;12.98;6.05;;;0.10;96.40;;;;;;5007788;28;20433;-74
2023/01/19 02:16:15;;;;;;;13.15;6.70;;;0.10;96.10;;;;;;5010879;28;20037;-74
2023/01/19 02:18:44;;;;;;;10.48;5.72;;;0.10;96.20;;;;;;5006671;28;20088;-74
2023/01/19 02:21:41;;;;;;;16.40;5.93;;;0.20;96.00;;;;;;5009111;28;20049;-74
2023/01/19 02:24:08;;;;;;;11.98;5.40;;;0.20;95.80;;;;;;5009444;28;20683;-74
2023/01/19 02:26:38;;;;;;;13.32;5.53;;;0.20;95.80;;;;;;5007468;28;20042;-74
2023/01/19 02:29:08;;;;;;;14.07;6.22;;;0.10;96.10;;;;;;5011272;28;20061;-74
2023/01/19 02:31:37;;;;;;;15.18;6.45;;;0.10;96.10;;;;;;5009427;28;20134;-74
2023/01/19 02:34:05;;;;;;;10.32;5.55;;;0.10;96.00;;;;;;5012211;28;20104;-74
2023/01/19 02:36:43;;;;;;;12.57;6.28;;;0.00;95.90;;;;;;5007480;28;20627;-74
2023/01/19 02:39:11;;;;;;;14.45;6.47;;;0.00;95.90;;;;;;5009097;28;20098;-70
2023/01/19 02:41:46;;;;;;;12.38;6.20;;;0.10;96.00;;;;;;5008813;28;20065;-70
2023/01/19 02:44:15;;;;;;;18.27;6.38;;;0.00;96.50;;;;;;5009906;28;20037;-73
2023/01/19 02:46:41;;;;;;;18.33;7.00;;;-0.10;96.70;;;;;;5010166;28;20040;-70
2023/01/19 02:49:07;;;;;;;11.75;6.47;;;-0.10;96.70;;;;;;5010740;28;20029;-71
2023/01/19 02:51:33;;;;;;;14.70;6.68;;;-0.10;96.60;;;;;;5007034;28;20033;-71
2023/01/19 02:54:26;;;;;;;13.80;6.82;;;-0.10;96.60;;;;;;5011401;28;20029;-73
2023/01/19 02:57:11;;;;;;;13.52;6.07;;;-0.10;96.60;;;;;;5011761;28;20030;-73
2023/01/19 02:59:59;;;;;;;15.23;6.03;;;-0.10;96.50;;;;;;5007001;28;20467;-71
2023/01/19 03:02:37;;;;;;;14.80;6.68;;;-0.10;96.70;;;;;;5007977;28;20473;-71
2023/01/19 03:05:24;;;;;;;12.38;6.13;;;-0.10;97.00;;;;;;5011411;28;20144;-70
2023/01/19 03:07:51;;;;;;;15.70;6.07;;;-0.10;96.70;;;;;;5008223;28;20069;-73
2023/01/19 03:10:25;;;;;;;15.52;6.40;;;-0.10;96.70;;;;;;5027282;28;20091;-73
2023/01/19 03:13:01;;;;;;;15.43;6.05;;;0.00;96.50;;;;;;4994835;28;20117;-72
2023/01/19 03:15:50;;;;;;;13.15;5.95;;;0.00;96.30;;;;;;5008161;28;20037;-71
2023/01/19 03:18:20;;;;;;;18.35;7.20;;;0.00;96.40;;;;;;5007798;28;20041;-71
2023/01/19 03:20:49;;;;;;;12.13;6.25;;;0.00;96.40;;;;;;5010224;28;20034;-74
2023/01/19 03:23:18;;;;;;;11.07;6.10;;;0.00;96.10;;;;;;5010996;28;20037;-68
2023/01/19 03:25:47;;;;;;;10.75;5.90;;;0.00;96.00;;;;;;5007568;28;20038;-70
2023/01/19 03:28:15;;;;;;;13.20;6.63;;;0.00;95.80;;;;;;5008268;28;20112;-72
2023/01/19 03:30:46;;;;;;;15.40;7.65;;;-0.10;95.70;;;;;;5008745;28;20153;-72
2023/01/19 03:33:22;;;;;;;14.60;6.72;;;-0.10;96.00;;;;;;5012210;28;20033;-73
2023/01/19 03:35:51;;;;;;;12.10;5.95;;;-0.10;96.00;;;;;;5009966;28;20045;-72
2023/01/19 03:38:23;;;;;;;16.27;7.47;;;-0.10;96.00;;;;;;5001271;28;20742;-72
2023/01/19 03:40:52;;;;;;;13.23;7.15;;;-0.10;96.00;;;;;;5004570;28;20034;-71
2023/01/19 03:43:18;;;;;;;17.20;8.13;;;-0.10;95.70;;;;;;5011656;28;20040;-71
2023/01/19 03:45:44;;;;;;;16.42;7.22;;;-0.10;95.90;;;;;;5015927;28;20030;-71
2023/01/19 03:48:11;;;;;;;14.20;7.85;;;-0.10;95.80;;;;;;5012181;28;20099;-74
2023/01/19 03:50:37;;;;;;;14.80;7.75;;;-0.10;96.00;;;;;;5011843;28;20041;-73
2023/01/19 03:53:09;;;;;;;17.25;8.02;;;-0.10;96.20;;;;;;5013532;28;20033;-72
2023/01/19 03:55:37;;;;;;;15.60;7.07;;;-0.10;96.10;;;;;;5009884;28;20041;-77
2023/01/19 03:58:03;;;;;;;15.57;7.25;;;-0.10;96.10;;;;;;5011744;28;20045;-78
2023/01/19 04:00:29;;;;;;;13.77;7.00;;;-0.10;95.90;;;;;;5010016;28;20041;-77
2023/01/19 04:02:55;;;;;;;16.30;7.28;;;0.00;95.90;;;;;;5010354;28;20129;-77
2023/01/19 04:05:21;;;;;;;14.38;7.32;;;0.00;95.90;;;;;;5011730;28;20037;-76
2023/01/19 04:07:48;;;;;;;14.82;6.95;;;-0.10;95.90;;;;;;5015598;28;20033;-76
2023/01/19 04:10:17;;;;;;;17.67;7.80;;;-0.10;96.00;;;;;;5013336;28;20132;-72
2023/01/19 04:12:47;;;;;;;18.50;7.68;;;0.00;95.80;;;;;;5011793;28;20025;-68
2023/01/19 04:15:13;;;;;;;15.43;7.78;;;0.00;95.70;;;;;;5009863;28;20068;-75
2023/01/19 04:17:39;;;;;;;16.40;7.68;;;0.00;95.60;;;;;;5008657;28;20594;-75
2023/01/19 04:20:05;;;;;;;15.63;7.22;;;0.10;95.40;;;;;;5016707;28;20766;-71
2023/01/19 04:22:32;;;;;;;18.15;8.00;;;0.00;95.30;;;;;;5010872;28;20824;-72
2023/01/19 04:24:57;;;;;;;20.35;8.07;;;0.00;95.10;;;;;;5008921;28;20100;-72
2023/01/19 04:27:24;;;;;;;15.15;7.78;;;0.10;95.40;;;;;;5009758;28;20036;-70
2023/01/19 04:29:51;;;;;;;18.17;7.57;;;0.00;95.30;;;;;;5013552;28;20040;-70
2023/01/19 04:32:17;;;;;;;12.38;6.95;;;0.00;95.10;;;;;;5008878;28;20164;-70
2023/01/19 04:34:43;;;;;;;11.63;6.32;;;0.00;95.00;;;;;;5008631;28;20075;-70
2023/01/19 04:37:09;;;;;;;15.50;7.05;;;0.00;94.90;;;;;;5012077;28;20122;-70
2023/01/19 04:39:35;;;;;;;13.20;6.65;;;-0.10;94.90;;;;;;5010781;28;20088;-71
2023/01/19 04:42:01;;;;;;;14.85;7.68;;;-0.10;94.80;;;;;;5009354;28;20060;-72
2023/01/19 04:44:27;;;;;;;18.30;7.20;;;-0.10;95.00;;;;;;5011005;28;20762;-72
2023/01/19 04:46:53;;;;;;;12.98;6.70;;;-0.10;95.10;;;;;;5012809;28;20761;-73
2023/01/19 04:49:19;;;;;;;14.93;7.38;;;-0.10;95.00;;;;;;5007661;28;20034;-73
2023/01/19 04:51:46;;;;;;;15.27;8.63;;;-0.10;94.90;;;;;;5005825;28;20034;-74
2023/01/19 04:54:11;;;;;;;15.93;7.80;;;-0.10;94.70;;;;;;5012786;28;20556;-74
2023/01/19 04:56:39;;;;;;;15.63;8.05;;;-0.10;94.80;;;;;;5012720;28;20145;-74
2023/01/19 04:59:05;;;;;;;13.77;7.75;;;-0.20;94.70;;;;;;5008532;28;20081;-74
2023/01/19 05:01:31;;;;;;;14.95;7.10;;;-0.20;95.20;;;;;;5012783;28;20779;-74
2023/01/19 05:04:00;;;;;;;17.33;7.70;;;-0.20;95.30;;;;;;5012077;28;20041;-74
2023/01/19 05:06:26;;;;;;;17.02;7.63;;;-0.20;95.10;;;;;;5007729;28;20240;-74
2023/01/19 05:08:52;;;;;;;13.70;8.07;;;-0.20;95.20;;;;;;5011397;28;20036;-74
2023/01/19 05:11:18;;;;;;;12.65;6.70;;;-0.20;94.90;;;;;;5010738;28;20481;-74
2023/01/19 05:13:43;;;;;;;17.83;8.13;;;-0.20;95.10;;;;;;5008263;28;20025;-73
2023/01/19 05:16:09;;;;;;;15.52;7.82;;;-0.10;94.80;;;;;;5010835;28;20033;-72
2023/01/19 05:18:35;;;;;;;17.33;7.53;;;-0.20;95.00;;;;;;5011571;28;20045;-74
2023/01/19 05:21:06;;;;;;;15.52;7.93;;;-0.20;94.90;;;;;;5008775;28;20053;-75
2023/01/19 05:23:32;;;;;;;14.52;7.70;;;-0.20;95.00;;;;;;5006716;28;20038;-76
2023/01/19 05:26:02;;;;;;;15.43;7.78;;;-0.20;95.20;;;;;;5004625;28;20073;-76
2023/01/19 05:28:31;;;;;;;14.82;7.75;;;-0.20;95.30;;;;;;5002978;28;20017;-76
2023/01/19 05:30:57;;;;;;;14.98;8.20;;;-0.30;95.40;;;;;;5006989;28;20040;-75
2023/01/19 05:33:24;;;;;;;19.75;8.60;;;-0.30;95.70;;;;;;5011919;28;20029;-76
2023/01/19 05:35:51;;;;;;;19.23;9.10;;;-0.20;95.30;;;;;;5007471;28;20057;-76
2023/01/19 05:38:17;;;;;;;13.32;6.88;;;-0.20;95.30;;;;;;5008016;28;20076;-76
2023/01/19 05:40:43;;;;;;;16.05;7.88;;;-0.30;95.60;;;;;;5012367;28;20486;-76
2023/01/19 05:43:09;;;;;;;15.88;8.10;;;-0.20;95.20;;;;;;5013326;28;20033;-76
2023/01/19 05:45:37;;;;;;;17.67;8.30;;;-0.30;95.40;;;;;;5009507;28;20072;-76
2023/01/19 05:48:04;;;;;;;13.30;7.57;;;-0.30;95.70;;;;;;5010323;28;20064;-76
2023/01/19 05:50:31;;;;;;;13.30;7.50;;;-0.40;95.90;;;;;;5011082;28;20041;-75
2023/01/19 05:52:57;;;;;;;14.75;8.57;;;-0.40;95.90;;;;;;5008319;28;20045;-76
2023/01/19 05:55:23;;;;;;;15.38;8.10;;;-0.30;96.20;;;;;;5010480;28;20037;-76
2023/01/19 05:57:49;;;;;;;14.90;8.88;;;-0.30;96.30;;;;;;5010391;28;20067;-76
2023/01/19 06:00:15;;;;;;;16.25;7.63;;;-0.40;96.20;;;;;;5007833;28;20033;-76
2023/01/19 06:02:41;;;;;;;18.73;8.68;;;-0.40;96.50;;;;;;5008487;28;20437;-76
2023/01/19 06:05:07;;;;;;;17.33;8.07;;;-0.30;96.40;;;;;;5010830;28;20038;-76
2023/01/19 06:07:33;;;;;;;18.02;8.43;;;-0.30;96.60;;;;;;5008149;28;20057;-76
2023/01/19 06:09:58;;;;;;;14.88;8.38;;;-0.30;96.40;;;;;;5011308;28;20766;-76
2023/01/19 06:12:24;;;;;;;15.52;7.68;;;-0.20;96.20;;;;;;5012274;28;20042;-76
2023/01/19 06:14:50;;;;;;;16.83;7.95;;;-0.20;96.10;;;;;;5011947;28;20041;-76
2023/01/19 06:17:16;;;;;;;17.38;7.85;;;-0.10;96.10;;;;;;5008627;28;20036;-76
2023/01/19 06:19:42;;;;;;;14.15;7.78;;;-0.10;95.90;;;;;;5016448;28;20783;-77
2023/01/19 06:22:07;;;;;;;16.80;8.05;;;-0.10;95.80;;;;;;5010585;28;20025;-75
2023/01/19 06:24:33;;;;;;;13.93;7.35;;;-0.20;96.00;;;;;;5013164;28;20559;-76
2023/01/19 06:26:59;;;;;;;14.55;7.25;;;-0.10;95.90;;;;;;5010606;28;20128;-76
2023/01/19 06:29:26;;;;;;;15.48;7.40;;;0.00;95.90;;;;;;5013453;28;20033;-76
2023/01/19 06:31:52;;;;;;;15.57;7.43;;;0.00;95.50;;;;;;5013570;28;20576;-76
2023/01/19 06:34:18;;;;;;;12.85;6.57;;;-0.10;95.40;;;;;;5013987;28;20048;-76
2023/01/19 06:36:45;;;;;;;14.00;7.43;;;-0.10;95.60;;;;;;5013542;28;20042;-75
2023/01/19 06:39:11;;;;;;;13.80;7.10;;;-0.10;95.50;;;;;;5013653;28;20042;-75
2023/01/19 06:41:37;;;;;;;13.77;7.05;;;0.00;95.40;;;;;;5007667;28;20044;-76
2023/01/19 06:44:04;;;;;;;16.85;7.97;;;0.00;95.20;;;;;;5014812;28;20037;-76
2023/01/19 06:46:30;;;;;;;15.48;7.13;;;0.00;95.00;;;;;;5012361;28;20025;-76
2023/01/19 06:48:56;;;;;;;14.20;7.53;;;0.00;95.10;;;;;;5007970;28;20034;-76
2023/01/19 06:51:22;;;;;;;17.77;8.48;;;0.00;95.10;;;;;;5008575;28;20061;-75
2023/01/19 06:53:48;;;;;;;17.55;7.28;;;0.00;95.10;;;;;;5007188;28;20042;-76
2023/01/19 06:56:15;;;;;;;23.13;8.13;;;0.00;95.00;;;;;;5004309;28;20033;-76
2023/01/19 06:58:43;;;;;;;13.23;7.43;;;0.00;94.80;;;;;;5015161;28;20048;-76
2023/01/19 07:01:09;;;;;;;17.70;7.60;;;0.00;94.90;;;;;;5014209;28;20041;-76
2023/01/19 07:03:36;;;;;;;13.90;7.80;;;-0.10;94.90;;;;;;5009744;28;20045;-76
2023/01/19 07:06:05;;;;;;;13.25;6.90;;;0.00;94.90;;;;;;5007508;28;20041;-76
2023/01/19 07:08:35;;;;;;;16.23;7.75;;;-0.10;94.70;;;;;;5008485;28;20046;-76
2023/01/19 07:11:06;;;;;;;16.00;7.43;;;-0.10;94.80;;;;;;5012506;28;20786;-76
2023/01/19 07:13:33;;;;;;;13.75;7.53;;;-0.10;94.60;;;;;;5008150;28;20034;-76
2023/01/19 07:16:09;;;;;;;20.25;7.50;;;-0.10;94.80;;;;;;5015739;28;20159;-76
2023/01/19 07:18:36;;;;;;;12.02;7.03;;;-0.10;95.10;;;;;;5018056;28;20040;-76
2023/01/19 07:21:02;;;;;;;15.88;7.18;;;-0.10;95.10;;;;;;5016098;28;20042;-76
2023/01/19 07:23:29;;;;;;;15.52;7.95;;;-0.10;95.20;;;;;;5017411;28;20084;-75
2023/01/19 07:26:02;;;;;;;13.02;6.95;;;-0.10;95.20;;;;;;5019802;28;20045;-76
2023/01/19 07:28:29;;;;;;;15.40;7.60;;;-0.10;95.30;;;;;;5017003;28;20061;-76
2023/01/19 07:30:56;;;;;;;13.50;7.13;;;-0.10;95.10;;;;;;5014713;28;20030;-76
2023/01/19 07:33:23;;;;;;;15.13;7.13;;;0.00;95.00;;;;;;5015470;28;20674;-76
2023/01/19 07:35:50;;;;;;;13.13;7.15;;;-0.10;94.90;;;;;;5015822;28;20164;-75
2023/01/19 07:38:17;;;;;;;17.38;7.25;;;-0.20;95.20;;;;;;5014453;28;20088;-76
2023/01/19 07:40:43;;;;;;;16.00;7.22;;;-0.20;95.60;;;;;;5019271;28;20033;-76
2023/01/19 07:43:09;;;;;;;16.08;7.68;;;-0.30;95.80;;;;;;5018020;28;20036;-76
2023/01/19 07:45:35;;;;;;;21.25;8.57;;;-0.30;96.10;;;;;;5014288;28;20153;-76
2023/01/19 07:48:00;;;;;;;13.60;7.30;;;-0.30;96.20;;;;;;5015663;28;20041;-75
2023/01/19 07:50:28;;;;;;;14.23;6.88;;;-0.20;96.30;;;;;;5015884;28;20052;-75
2023/01/19 07:52:54;;;;;;;18.92;7.20;;;-0.20;95.70;;;;;;5015372;28;20107;-76
2023/01/19 07:55:22;;;;;;;11.57;6.43;;;-0.10;95.60;;;;;;5016094;28;20038;-75
2023/01/19 07:57:51;;;;;;;12.82;6.90;;;0.00;95.20;;;;;;5013429;28;20038;-76
2023/01/19 08:00:20;;;;;;;10.85;5.82;;;0.00;95.10;;;;;;5021743;28;20067;-76
2023/01/19 08:02:50;;;;;;;13.80;6.97;;;0.00;95.00;;;;;;5015798;28;20037;-76
2023/01/19 08:05:17;;;;;;;11.85;6.30;;;0.00;94.90;;;;;;5019773;28;20037;-76
2023/01/19 08:07:44;;;;;;;17.35;6.00;;;0.20;94.90;;;;;;5018065;28;20034;-76
2023/01/19 08:10:11;;;;;;;11.88;6.03;;;0.20;94.60;;;;;;5014679;28;20045;-76
2023/01/19 08:12:37;;;;;;;10.90;6.20;;;0.30;94.50;;;;;;5012175;28;20030;-75
2023/01/19 08:15:04;;;;;;;15.05;6.07;;;0.40;94.60;;;;;;5012999;28;20033;-76
2023/01/19 08:17:29;;;;;;;14.23;7.28;;;0.40;93.90;;;;;;5014346;28;20029;-76
2023/01/19 08:19:56;;;;;;;10.98;5.88;;;0.40;94.00;;;;;;5020133;28;20502;-76
2023/01/19 08:22:22;;;;;;;12.82;6.47;;;0.50;94.00;;;;;;5017487;28;20029;-76
2023/01/19 08:24:47;;;;;;;10.98;5.93;;;0.60;93.80;;;;;;5015551;28;20473;-76
2023/01/19 08:27:13;;;;;;;12.73;6.38;;;0.70;93.80;;;;;;5014282;28;20120;-76
2023/01/19 08:29:39;;;;;;;13.68;5.75;;;0.60;93.30;;;;;;5013947;28;20033;-76
2023/01/19 08:32:05;;;;;;;12.13;6.03;;;0.50;93.90;;;;;;5018193;28;20036;-76
2023/01/19 08:34:31;;;;;;;14.73;5.90;;;0.50;94.20;;;;;;5014350;28;20041;-76
2023/01/19 08:36:58;;;;;;;9.02;6.03;;;0.60;93.70;;;;;;5012579;28;20140;-76
2023/01/19 08:39:24;;;;;;;11.18;5.75;;;0.70;93.80;;;;;;5010919;28;20563;-76
2023/01/19 08:41:51;;;;;;;13.60;5.82;;;0.70;93.50;;;;;;5015554;28;20038;-76
2023/01/19 08:44:17;;;;;;;9.02;5.40;;;0.70;93.60;;;;;;5011706;28;20049;-76
2023/01/19 08:46:43;;;;;;;10.43;5.75;;;0.80;93.60;;;;;;5016109;28;20030;-76
2023/01/19 08:49:09;;;;;;;10.45;6.00;;;0.90;93.50;;;;;;5017057;28;20045;-76
2023/01/19 08:51:35;;;;;;;10.40;4.97;;;1.00;93.20;;;;;;5015671;28;20040;-75
2023/01/19 08:54:01;;;;;;;9.93;5.45;;;1.10;93.30;;;;;;5012009;28;20556;-76
2023/01/19 08:56:26;;;;;;;11.35;5.40;;;1.20;93.30;;;;;;5015371;28;20758;-76
2023/01/19 08:58:52;;;;;;;14.57;5.63;;;1.30;93.20;;;;;;5015535;28;20127;-74
2023/01/19 09:01:20;;;;;;;9.50;5.03;;;1.40;92.90;;;;;;5015924;28;20123;-74
2023/01/19 09:03:47;;;;;;;15.55;5.47;;;1.60;92.20;;;;;;5016090;28;20039;-74
2023/01/19 09:06:18;;;;;;;10.07;4.90;;;2.10;91.80;;;;;;5012625;28;20033;-74
2023/01/19 09:08:44;;;;;;;12.95;5.90;;;2.30;91.10;;;;;;5015816;28;20029;-74
2023/01/19 09:11:12;;;;;;;10.30;5.43;;;2.20;90.50;;;;;;5013628;28;20033;-74
2023/01/19 09:13:38;;;;;;;9.30;5.60;;;2.30;90.50;;;;;;5014461;28;20029;-74
2023/01/19 09:16:06;;;;;;;10.85;5.28;;;2.20;90.40;;;;;;5017309;28;20574;-74
2023/01/19 09:18:33;;;;;;;11.35;5.07;;;2.20;90.60;;;;;;5012145;28;20069;-74
2023/01/19 09:20:59;;;;;;;10.38;5.03;;;2.40;91.00;;;;;;5016756;28;20033;-74
2023/01/19 09:23:25;;;;;;;14.13;5.15;;;2.60;90.10;;;;;;5012073;28;20064;-75
2023/01/19 09:25:58;;;;;;;9.57;5.18;;;3.00;88.20;;;;;;5007529;28;20037;-74
2023/01/19 09:28:24;;;;;;;10.85;4.63;;;3.20;86.50;;;;;;5013999;28;21047;-77
2023/01/19 09:30:50;;;;;;;11.63;5.93;;;3.90;85.10;;;;;;5015149;28;20801;-77
2023/01/19 09:33:18;;;;;;;12.75;5.15;;;5.10;79.80;;;;;;5017808;28;20030;-77
2023/01/19 09:35:45;;;;;;;8.57;4.78;;;5.80;75.70;;;;;;5007128;28;20681;-74
2023/01/19 09:38:14;;;;;;;11.00;5.20;;;6.20;73.60;;;;;;5013085;28;20037;-78
2023/01/19 09:40:59;;;;;;;9.55;5.00;;;7.10;68.90;;;;;;5015572;28;20034;-75
2023/01/19 09:43:46;;;;;;;9.03;4.30;;;7.90;65.60;;;;;;5011035;28;20242;-77
2023/01/19 09:46:24;;;;;;;9.75;5.03;;;8.50;61.40;;;;;;5009526;28;20112;-71
2023/01/19 09:48:50;;;;;;;8.00;4.65;;;9.30;60.00;;;;;;5011551;28;20044;-75
2023/01/19 09:51:27;;;;;;;8.20;4.75;;;9.70;56.30;;;;;;5012461;28;20044;-76
2023/01/19 09:54:01;;;;;;;12.50;5.22;;;9.30;57.20;;;;;;5013991;28;20673;-75
2023/01/19 09:56:29;;;;;;;9.65;5.47;;;8.50;58.90;;;;;;5009654;28;20041;-76
2023/01/19 09:58:55;;;;;;;10.63;5.40;;;7.50;61.80;;;;;;5013748;28;20056;-74
2023/01/19 10:01:53;;;;;;;8.60;5.00;;;6.90;65.90;;;;;;5011387;28;20420;-74
2023/01/19 10:04:24;;;;;;;12.18;4.78;;;6.70;67.30;;;;;;5010633;28;20030;-74
2023/01/19 10:06:55;;;;;;;12.10;5.03;;;6.90;66.50;;;;;;5016981;28;20125;-74
2023/01/19 10:09:51;;;;;;;10.68;4.53;;;7.40;64.10;;;;;;5010244;28;20072;-73
2023/01/19 10:12:49;;;;;;;11.07;4.50;;;8.00;62.20;;;;;;4998781;28;20115;-73
2023/01/19 10:15:45;;;;;;;7.25;4.32;;;8.10;62.60;;;;;;4987616;28;20115;-74
2023/01/19 10:18:17;;;;;;;8.35;4.90;;;8.10;63.20;;;;;;5010478;28;20041;-74
2023/01/19 10:20:50;;;;;;;9.60;4.97;;;8.10;62.90;;;;;;5013116;28;20021;-73
2023/01/19 10:23:35;;;;;;;11.48;5.30;;;8.10;62.60;;;;;;5013573;28;20045;-73
2023/01/19 10:26:20;;;;;;;12.77;5.72;;;8.10;63.00;;;;;;5011305;28;20088;-75
2023/01/19 10:28:49;;;;;;;7.88;4.70;;;8.00;63.10;;;;;;5014153;28;20040;-75
2023/01/19 10:31:19;;;;;;;10.00;5.10;;;7.60;63.90;;;;;;5008022;28;20512;-75
2023/01/19 10:33:45;;;;;;;8.50;5.22;;;7.20;65.30;;;;;;5011482;28;20079;-74
2023/01/19 10:36:36;;;;;;;8.65;4.45;;;6.90;66.60;;;;;;5007052;28;20984;-74
2023/01/19 10:39:06;;;;;;;8.57;4.28;;;6.80;67.40;;;;;;5010877;28;20061;-72
2023/01/19 10:41:49;;;;;;;9.95;4.95;;;7.00;66.80;;;;;;5012739;28;20045;-74
2023/01/19 10:44:26;;;;;;;8.75;5.22;;;6.90;66.80;;;;;;5011995;28;20583;-78
2023/01/19 10:46:56;;;;;;;9.38;4.60;;;7.20;65.80;;;;;;5017260;28;20405;-79
2023/01/19 10:49:34;;;;;;;8.65;4.22;;;7.80;65.70;;;;;;5002938;28;20676;-78
2023/01/19 10:52:01;;;;;;;7.45;4.53;;;8.20;63.20;;;;;;5008688;28;20490;-79
2023/01/19 10:54:29;;;;;;;6.43;4.35;;;8.70;62.10;;;;;;5010255;28;20038;-78
2023/01/19 10:57:02;;;;;;;8.43;4.47;;;8.80;61.80;;;;;;5012522;28;20041;-79
2023/01/19 10:59:51;;;;;;;10.85;4.72;;;8.50;62.50;;;;;;5014063;28;20029;-79
2023/01/19 11:02:28;;;;;;;6.60;4.28;;;9.00;60.20;;;;;;5008523;28;20086;-75
2023/01/19 11:04:59;;;;;;;6.93;4.57;;;10.00;57.10;;;;;;5017777;28;20091;-75
2023/01/19 11:07:24;;;;;;;8.40;4.82;;;11.00;53.80;;;;;;5007874;28;20057;-75
2023/01/19 11:10:19;;;;;;;9.43;4.80;;;12.00;51.90;;;;;;5012847;28;20111;-76
2023/01/19 11:13:11;;;;;;;8.02;4.05;;;12.40;49.50;;;;;;5005485;28;20044;-77
2023/01/19 11:15:48;;;;;;;10.00;4.70;;;13.00;48.60;;;;;;5010825;28;20120;-76
2023/01/19 11:18:27;;;;;;;6.85;4.47;;;13.10;47.40;;;;;;5006414;28;20144;-75
2023/01/19 11:20:55;;;;;;;7.35;4.95;;;13.50;47.00;;;;;;5011736;28;20041;-75
2023/01/19 11:23:28;;;;;;;8.65;4.68;;;13.50;47.00;;;;;;5013792;28;20025;-77
2023/01/19 11:26:00;;;;;;;7.97;4.30;;;13.90;45.50;;;;;;5012507;28;20116;-74
2023/01/19 11:28:50;;;;;;;10.18;5.13;;;12.80;47.50;;;;;;5012512;28;20047;-76
2023/01/19 11:31:26;;;;;;;8.88;4.65;;;10.20;53.60;;;;;;5005019;28;20041;-77
2023/01/19 11:34:00;;;;;;;7.97;4.43;;;8.20;57.80;;;;;;5016037;28;20037;-76
2023/01/19 11:36:30;;;;;;;6.50;4.03;;;6.90;63.60;;;;;;5016391;28;20072;-77
2023/01/19 11:39:15;;;;;;;9.63;4.68;;;6.20;67.70;;;;;;5014366;28;20505;-75
2023/01/19 11:41:41;;;;;;;8.75;5.03;;;5.70;69.80;;;;;;5003399;28;20084;-75
2023/01/19 11:44:41;;;;;;;9.05;4.18;;;5.50;71.50;;;;;;5020377;28;20041;-75
2023/01/19 11:47:36;;;;;;;9.02;4.30;;;5.40;71.80;;;;;;4989045;28;20060;-76
2023/01/19 11:50:14;;;;;;;7.88;4.18;;;5.20;72.10;;;;;;5001805;28;20049;-75
2023/01/19 11:53:13;;;;;;;8.27;4.47;;;4.80;75.30;;;;;;5008942;28;20037;-75
2023/01/19 11:55:50;;;;;;;10.32;4.65;;;4.80;75.50;;;;;;5000429;28;20149;-74
2023/01/19 11:58:18;;;;;;;7.82;4.50;;;4.70;76.80;;;;;;5014756;28;20037;-75
2023/01/19 12:00:49;;;;;;;7.90;4.25;;;4.80;77.20;;;;;;5017775;28;20061;-76
2023/01/19 12:03:33;;;;;;;8.82;4.50;;;5.00;77.20;;;;;;5013563;28;20111;-75
2023/01/19 12:06:18;;;;;;;8.55;4.90;;;5.00;75.90;;;;;;5009432;28;20030;-76
2023/01/19 12:09:01;;;;;;;9.05;4.78;;;5.00;77.50;;;;;;5019813;28;20033;-77
2023/01/19 12:11:36;;;;;;;9.68;4.50;;;5.10;77.20;;;;;;5012419;28;20060;-71
2023/01/19 12:14:05;;;;;;;7.47;4.07;;;5.10;76.60;;;;;;5020856;28;20037;-76
2023/01/19 12:16:33;;;;;;;10.18;4.47;;;5.00;76.60;;;;;;5020528;28;20060;-72
2023/01/19 12:19:13;;;;;;;9.48;4.90;;;4.80;77.30;;;;;;5018636;28;20112;-74
2023/01/19 12:21:39;;;;;;;6.47;3.75;;;4.50;78.90;;;;;;5014972;28;20044;-72
2023/01/19 12:24:15;;;;;;;6.38;3.80;;;4.50;78.50;;;;;;5016924;28;20037;-77
2023/01/19 12:26:57;;;;;;;8.57;3.95;;;4.60;79.30;;;;;;5012275;28;20021;-77
2023/01/19 12:29:31;;;;;;;6.55;4.05;;;4.80;78.50;;;;;;5020260;28;20033;-78
2023/01/19 12:32:12;;;;;;;8.68;4.68;;;4.60;78.10;;;;;;5017426;28;20034;-82
2023/01/19 12:34:45;;;;;;;9.05;4.65;;;4.60;79.60;;;;;;5011063;28;20084;-82
2023/01/19 12:37:29;;;;;;;6.22;4.10;;;4.70;79.50;;;;;;5012661;28;20056;-77
2023/01/19 12:40:04;;;;;;;8.25;4.30;;;4.70;78.70;;;;;;5016042;28;20060;-80
2023/01/19 12:42:30;;;;;;;7.55;4.57;;;4.70;79.70;;;;;;5019640;28;20037;-79
2023/01/19 12:45:12;;;;;;;9.38;4.90;;;4.70;78.80;;;;;;5021414;28;20371;-78
2023/01/19 12:47:38;;;;;;;7.07;4.28;;;4.50;78.70;;;;;;5016250;28;20038;-78
2023/01/19 12:50:11;;;;;;;7.53;4.93;;;4.40;80.40;;;;;;5010622;28;20107;-80
2023/01/19 12:52:50;;;;;;;8.93;5.00;;;4.30;80.40;;;;;;5016599;28;20046;-81
2023/01/19 12:55:30;;;;;;;12.18;5.43;;;4.30;81.80;;;;;;5017462;28;20478;-80
2023/01/19 12:58:07;;;;;;;6.90;4.32;;;4.30;81.70;;;;;;5014052;28;20095;-83
2023/01/19 13:00:39;;;;;;;8.80;4.65;;;4.30;82.00;;;;;;5013904;28;20034;-80
2023/01/19 13:03:17;;;;;;;7.00;4.20;;;4.30;81.80;;;;;;5017694;28;20030;-81
2023/01/19 13:05:49;;;;;;;9.30;4.57;;;4.30;81.90;;;;;;5016504;28;20128;-80
2023/01/19 13:08:17;;;;;;;8.73;5.22;;;4.30;81.90;;;;;;5010905;28;20181;-78